Time;durP1;ratioP1;P1;durP2;ratioP2;P2;SDS_P1;SDS_P2;PMS_P1;PMS_P2;Temp;Humidity;BMP_temperature;BMP_pressure;BME280_temperature;BME280_humidity;BME280_pressure;Samples;Min_cycle;Max_cycle;Signal;HPM_P1;HPM_P2
2023/09/07 00:01:47;;;;;;;37.20;34.88;;;18.70;99.90;;;;;;6240157;23;20091;-83
2023/09/07 00:04:13;;;;;;;40.08;37.53;;;18.40;99.90;;;;;;6240273;23;20016;-83
2023/09/07 00:06:43;;;;;;;33.20;30.88;;;18.70;99.90;;;;;;6213950;23;20082;-82
2023/09/07 00:09:11;;;;;;;36.28;33.95;;;18.60;99.90;;;;;;6214825;23;20012;-82
2023/09/07 00:11:37;;;;;;;33.17;30.83;;;18.70;99.90;;;;;;6214782;23;20053;-82
2023/09/07 00:14:04;;;;;;;33.05;30.83;;;18.70;99.90;;;;;;6214717;23;20012;-83
2023/09/07 00:16:35;;;;;;;31.95;29.65;;;18.70;99.90;;;;;;6240667;23;20019;-83
2023/09/07 00:19:02;;;;;;;34.95;32.65;;;18.70;99.90;;;;;;6242059;22;20012;-81
2023/09/07 00:21:28;;;;;;;32.25;30.05;;;18.70;99.90;;;;;;6239517;23;20009;-81
2023/09/07 00:23:54;;;;;;;31.48;29.13;;;18.60;99.90;;;;;;6214760;23;20042;-81
2023/09/07 00:26:20;;;;;;;28.13;26.08;;;18.70;99.90;;;;;;6215060;23;20046;-83
2023/09/07 00:28:46;;;;;;;35.70;33.33;;;18.60;99.90;;;;;;6215354;23;20094;-83
2023/09/07 00:31:12;;;;;;;30.05;27.92;;;18.60;99.90;;;;;;6239772;23;20020;-83
2023/09/07 00:33:38;;;;;;;38.95;36.35;;;18.50;99.90;;;;;;6241858;22;20117;-82
2023/09/07 00:36:04;;;;;;;38.40;35.72;;;18.40;99.90;;;;;;6239402;23;20074;-83
2023/09/07 00:38:30;;;;;;;31.02;28.83;;;18.40;99.90;;;;;;6265261;22;20015;-83
2023/09/07 00:40:56;;;;;;;37.70;35.22;;;18.40;99.90;;;;;;6241496;22;20012;-83
2023/09/07 00:43:22;;;;;;;39.78;36.55;;;18.30;99.90;;;;;;6240214;23;20070;-83
2023/09/07 00:45:48;;;;;;;31.88;29.35;;;18.30;99.90;;;;;;6239368;23;20070;-82
2023/09/07 00:48:16;;;;;;;36.25;33.72;;;18.30;99.90;;;;;;6214562;23;20059;-82
2023/09/07 00:50:42;;;;;;;36.35;33.83;;;18.30;99.90;;;;;;6213983;23;20095;-83
2023/09/07 00:53:10;;;;;;;33.75;31.40;;;18.10;99.90;;;;;;6214475;23;20023;-83
2023/09/07 00:55:36;;;;;;;30.67;28.70;;;18.20;99.90;;;;;;6214647;23;20087;-82
2023/09/07 00:58:06;;;;;;;31.85;29.83;;;18.20;99.90;;;;;;6265456;22;20520;-83
2023/09/07 01:00:35;;;;;;;32.17;29.88;;;18.10;99.90;;;;;;6240158;23;20047;-82
2023/09/07 01:03:01;;;;;;;34.97;32.45;;;18.10;99.90;;;;;;6214037;23;20096;-83
2023/09/07 01:05:39;;;;;;;27.02;25.15;;;17.70;99.90;;;;;;6213166;23;20024;-83
2023/09/07 01:08:14;;;;;;;25.00;23.20;;;17.90;99.90;;;;;;6239751;23;20021;-82
2023/09/07 01:10:40;;;;;;;33.67;31.48;;;17.90;99.90;;;;;;6241739;22;20012;-82
2023/09/07 01:13:06;;;;;;;25.75;23.88;;;17.80;99.90;;;;;;6239565;23;20446;-82
2023/09/07 01:15:32;;;;;;;34.58;32.30;;;17.60;99.90;;;;;;6239729;23;20012;-83
2023/09/07 01:18:05;;;;;;;38.30;35.55;;;17.80;99.90;;;;;;6238777;23;20012;-83
2023/09/07 01:20:35;;;;;;;34.17;31.83;;;17.70;99.90;;;;;;6214175;23;20058;-83
2023/09/07 01:23:03;;;;;;;28.75;26.65;;;17.60;99.90;;;;;;6213890;23;20430;-82
2023/09/07 01:25:29;;;;;;;38.20;35.67;;;17.60;99.90;;;;;;6239436;23;20074;-82
2023/09/07 01:27:55;;;;;;;32.75;30.42;;;17.60;99.90;;;;;;6214024;23;20019;-82
2023/09/07 01:30:22;;;;;;;28.63;26.50;;;17.60;99.90;;;;;;6239538;23;20047;-82
2023/09/07 01:32:49;;;;;;;27.67;25.50;;;17.50;99.90;;;;;;6213239;23;20037;-83
2023/09/07 01:35:16;;;;;;;26.55;24.48;;;17.50;99.90;;;;;;6239356;23;20012;-83
2023/09/07 01:37:42;;;;;;;35.05;32.60;;;17.50;99.90;;;;;;6239336;23;20086;-83
2023/09/07 01:40:09;;;;;;;41.58;38.22;;;17.40;99.90;;;;;;6239521;23;20078;-83
2023/09/07 01:42:34;;;;;;;31.58;29.13;;;17.40;99.90;;;;;;6239402;23;20071;-82
2023/09/07 01:45:00;;;;;;;31.50;29.48;;;17.50;99.90;;;;;;6239190;23;20016;-83
2023/09/07 01:47:26;;;;;;;29.42;27.27;;;17.60;99.90;;;;;;6213100;23;20062;-83
2023/09/07 01:49:52;;;;;;;25.95;24.05;;;17.40;99.90;;;;;;6213998;23;20016;-83
2023/09/07 01:52:17;;;;;;;28.25;26.23;;;17.40;99.90;;;;;;6264438;22;20008;-83
2023/09/07 01:54:43;;;;;;;20.38;18.83;;;17.30;99.90;;;;;;6239376;23;20008;-83
2023/09/07 01:57:09;;;;;;;23.00;21.23;;;17.30;99.90;;;;;;6240769;23;20012;-82
2023/09/07 01:59:34;;;;;;;20.65;18.77;;;17.30;99.90;;;;;;6213798;23;20091;-82
2023/09/07 02:02:00;;;;;;;27.95;25.77;;;17.20;99.90;;;;;;6213044;23;20090;-82
2023/09/07 02:04:26;;;;;;;21.50;19.58;;;17.20;99.90;;;;;;6213717;23;20531;-82
2023/09/07 02:06:51;;;;;;;19.90;18.13;;;17.20;99.90;;;;;;6240745;22;20020;-81
2023/09/07 02:09:17;;;;;;;21.73;19.35;;;17.20;99.90;;;;;;6213792;23;20055;-82
2023/09/07 02:11:43;;;;;;;33.67;31.20;;;17.10;99.90;;;;;;6238964;23;20548;-81
2023/09/07 02:14:09;;;;;;;32.50;30.17;;;17.10;99.90;;;;;;6238907;23;20058;-81
2023/09/07 02:16:35;;;;;;;20.88;18.90;;;17.00;99.90;;;;;;6213276;23;20012;-81
2023/09/07 02:19:06;;;;;;;21.63;20.05;;;17.00;99.90;;;;;;6241025;22;20016;-81
2023/09/07 02:21:32;;;;;;;24.08;21.77;;;16.90;99.90;;;;;;6213364;23;20016;-82
2023/09/07 02:23:58;;;;;;;22.00;20.10;;;16.90;99.90;;;;;;6239454;23;20004;-82
2023/09/07 02:26:24;;;;;;;21.13;19.42;;;16.90;99.90;;;;;;6238953;23;20066;-82
2023/09/07 02:28:50;;;;;;;25.25;23.27;;;16.80;99.90;;;;;;6238892;23;20019;-81
2023/09/07 02:31:16;;;;;;;28.70;26.35;;;16.80;99.90;;;;;;6240128;22;20008;-81
2023/09/07 02:33:42;;;;;;;33.70;31.10;;;16.80;99.90;;;;;;6239120;23;20012;-81
2023/09/07 02:36:08;;;;;;;23.67;21.63;;;16.70;99.90;;;;;;6239021;23;20491;-81
2023/09/07 02:38:34;;;;;;;29.65;27.58;;;16.70;99.90;;;;;;6213390;23;20335;-82
2023/09/07 02:41:01;;;;;;;36.13;33.80;;;16.70;99.90;;;;;;6238815;23;20388;-81
2023/09/07 02:43:26;;;;;;;39.10;36.08;;;16.70;99.90;;;;;;6238808;23;20019;-81
2023/09/07 02:45:52;;;;;;;39.28;36.67;;;16.70;99.90;;;;;;6238265;23;20020;-82
2023/09/07 02:48:18;;;;;;;36.45;33.75;;;16.60;99.90;;;;;;6238830;23;20023;-81
2023/09/07 02:50:48;;;;;;;36.20;33.45;;;16.60;99.90;;;;;;6213479;23;20091;-81
2023/09/07 02:53:14;;;;;;;33.50;31.00;;;16.50;99.90;;;;;;6264204;22;20048;-82
2023/09/07 02:55:40;;;;;;;37.10;34.45;;;16.60;99.90;;;;;;6239290;23;20019;-81
2023/09/07 02:58:06;;;;;;;35.28;32.22;;;16.60;99.90;;;;;;6213347;23;20473;-81
2023/09/07 03:00:34;;;;;;;29.25;27.23;;;16.60;99.90;;;;;;6238641;23;20171;-81
2023/09/07 03:03:00;;;;;;;33.85;31.02;;;16.60;99.90;;;;;;6238775;23;20027;-82
2023/09/07 03:05:29;;;;;;;39.38;36.80;;;16.60;99.90;;;;;;6213128;23;20021;-81
2023/09/07 03:07:55;;;;;;;34.78;31.92;;;16.60;99.90;;;;;;6213493;23;20346;-81
2023/09/07 03:10:20;;;;;;;36.67;34.20;;;16.70;99.90;;;;;;6213316;23;20101;-82
2023/09/07 03:12:46;;;;;;;32.42;30.00;;;16.60;99.90;;;;;;6238628;23;20089;-81
2023/09/07 03:15:12;;;;;;;37.33;34.58;;;16.50;99.90;;;;;;6238549;23;20159;-81
2023/09/07 03:17:38;;;;;;;34.70;32.15;;;16.50;99.90;;;;;;6238615;23;20339;-81
2023/09/07 03:20:22;;;;;;;29.70;27.30;;;16.50;99.90;;;;;;6238607;23;20066;-81
2023/09/07 03:22:48;;;;;;;46.30;43.22;;;16.50;99.90;;;;;;6238702;23;20004;-82
2023/09/07 03:25:14;;;;;;;40.72;38.03;;;16.60;99.90;;;;;;6238780;23;20105;-81
2023/09/07 03:27:40;;;;;;;28.25;25.98;;;16.50;99.90;;;;;;6239021;23;20009;-82
2023/09/07 03:30:07;;;;;;;42.53;39.55;;;16.50;99.90;;;;;;6238002;23;20579;-82
2023/09/07 03:32:36;;;;;;;52.70;49.00;;;16.50;99.90;;;;;;6239331;23;20062;-81
2023/09/07 03:35:08;;;;;;;34.00;31.55;;;16.40;99.90;;;;;;6240217;23;20406;-82
2023/09/07 03:37:42;;;;;;;38.40;35.38;;;16.50;99.90;;;;;;6240243;23;20012;-81
2023/09/07 03:40:09;;;;;;;33.33;30.67;;;16.60;99.90;;;;;;6215490;23;20016;-82
2023/09/07 03:42:41;;;;;;;41.28;38.17;;;16.50;99.90;;;;;;6214418;23;20343;-80
2023/09/07 03:45:07;;;;;;;44.72;41.75;;;16.40;99.90;;;;;;6214927;23;20012;-81
2023/09/07 03:47:33;;;;;;;37.53;34.88;;;16.40;99.90;;;;;;6240703;23;20351;-80
2023/09/07 03:50:00;;;;;;;34.97;32.42;;;16.40;99.90;;;;;;6214768;23;20009;-81
2023/09/07 03:52:27;;;;;;;42.35;39.20;;;16.40;99.90;;;;;;6240238;23;20070;-81
2023/09/07 03:54:56;;;;;;;45.65;42.35;;;16.40;99.90;;;;;;6214758;23;20543;-81
2023/09/07 03:57:25;;;;;;;35.15;32.60;;;16.40;99.90;;;;;;6240764;23;20031;-81
2023/09/07 03:59:51;;;;;;;30.98;28.83;;;16.60;99.90;;;;;;6243529;23;20048;-81
2023/09/07 04:02:22;;;;;;;40.08;37.13;;;16.40;99.90;;;;;;6215550;23;20019;-82
2023/09/07 04:04:49;;;;;;;38.08;35.53;;;16.40;99.90;;;;;;6240454;23;20043;-80
2023/09/07 04:07:16;;;;;;;46.85;43.67;;;16.40;99.90;;;;;;6214407;23;20016;-81
2023/09/07 04:09:43;;;;;;;36.75;34.25;;;16.30;99.90;;;;;;6241643;22;20322;-81
2023/09/07 04:12:09;;;;;;;37.28;34.70;;;16.30;99.90;;;;;;6213782;23;20087;-80
2023/09/07 04:14:35;;;;;;;39.47;36.53;;;16.30;99.90;;;;;;6214412;23;20014;-80
2023/09/07 04:17:01;;;;;;;32.28;29.70;;;16.30;99.90;;;;;;6214652;23;20290;-81
2023/09/07 04:19:27;;;;;;;36.50;33.95;;;16.30;99.90;;;;;;6214605;23;20066;-80
2023/09/07 04:21:52;;;;;;;41.13;38.45;;;16.30;99.90;;;;;;6241640;22;20012;-81
2023/09/07 04:24:18;;;;;;;36.70;34.17;;;16.20;99.90;;;;;;6240290;23;20015;-81
2023/09/07 04:26:44;;;;;;;36.08;33.47;;;16.20;99.90;;;;;;6239016;23;20016;-80
2023/09/07 04:29:11;;;;;;;32.70;30.17;;;16.20;99.90;;;;;;6240189;23;20019;-80
2023/09/07 04:31:37;;;;;;;38.60;35.97;;;16.20;99.90;;;;;;6265566;22;20014;-81
2023/09/07 04:34:03;;;;;;;40.00;37.30;;;16.10;99.90;;;;;;6240189;23;20083;-80
2023/09/07 04:36:28;;;;;;;39.78;36.97;;;16.20;99.90;;;;;;6214717;23;20012;-81
2023/09/07 04:38:54;;;;;;;34.47;32.03;;;16.20;99.90;;;;;;6214435;23;20013;-81
2023/09/07 04:41:20;;;;;;;38.88;36.03;;;16.20;99.90;;;;;;6239419;23;20338;-80
2023/09/07 04:43:46;;;;;;;40.17;37.40;;;16.20;99.90;;;;;;6239671;23;20008;-80
2023/09/07 04:46:13;;;;;;;42.45;39.25;;;16.10;99.90;;;;;;6239444;23;20018;-80
2023/09/07 04:48:43;;;;;;;35.08;32.55;;;16.20;99.90;;;;;;6214479;23;20008;-80
2023/09/07 04:51:10;;;;;;;39.45;36.45;;;16.10;99.90;;;;;;6239880;23;20331;-80
2023/09/07 04:53:38;;;;;;;41.35;38.35;;;16.10;99.90;;;;;;6239819;23;20016;-80
2023/09/07 04:56:05;;;;;;;32.40;30.10;;;16.10;99.90;;;;;;6213554;23;20016;-81
2023/09/07 04:58:34;;;;;;;37.42;34.35;;;16.20;99.90;;;;;;6239274;23;20012;-80
2023/09/07 05:01:04;;;;;;;40.97;37.38;;;16.10;99.90;;;;;;6214118;23;20014;-80
2023/09/07 05:03:31;;;;;;;38.47;35.58;;;16.10;99.90;;;;;;6241078;22;20012;-80
2023/09/07 05:05:56;;;;;;;53.38;49.67;;;16.10;99.90;;;;;;6241688;22;20100;-81
2023/09/07 05:08:24;;;;;;;40.88;38.08;;;16.20;99.90;;;;;;6214166;23;20048;-80
2023/09/07 05:10:55;;;;;;;38.85;36.22;;;16.10;99.90;;;;;;6238624;23;20044;-80
2023/09/07 05:13:21;;;;;;;33.17;30.75;;;16.40;99.90;;;;;;6214025;23;20197;-80
2023/09/07 05:15:50;;;;;;;35.83;33.35;;;16.10;99.90;;;;;;6213957;23;20246;-80
2023/09/07 05:18:17;;;;;;;38.92;36.25;;;16.10;99.90;;;;;;6239489;23;20008;-80
2023/09/07 05:20:48;;;;;;;39.55;36.67;;;16.20;99.90;;;;;;6239428;23;20012;-80
2023/09/07 05:23:15;;;;;;;41.38;37.83;;;16.10;99.90;;;;;;6264616;22;20019;-81
2023/09/07 05:25:51;;;;;;;43.10;40.00;;;16.10;99.90;;;;;;6238439;23;20069;-80
2023/09/07 05:28:18;;;;;;;34.53;31.77;;;16.20;99.90;;;;;;6239599;23;20313;-80
2023/09/07 05:30:44;;;;;;;38.13;35.50;;;16.20;99.90;;;;;;6239082;23;20351;-80
2023/09/07 05:33:11;;;;;;;44.50;41.28;;;16.20;99.90;;;;;;6214095;23;20019;-80
2023/09/07 05:35:41;;;;;;;39.35;36.45;;;16.20;99.90;;;;;;6239222;23;20061;-80
2023/09/07 05:38:08;;;;;;;33.10;30.52;;;16.20;99.90;;;;;;6240945;22;20012;-80
2023/09/07 05:40:38;;;;;;;31.02;28.15;;;16.30;99.90;;;;;;6213447;23;20008;-80
2023/09/07 05:43:07;;;;;;;29.98;27.70;;;16.30;99.90;;;;;;6214209;23;20012;-80
2023/09/07 05:45:40;;;;;;;32.92;30.08;;;16.30;99.90;;;;;;6241010;22;20210;-81
2023/09/07 05:48:06;;;;;;;30.05;27.45;;;16.40;99.90;;;;;;6239580;23;20074;-81
2023/09/07 05:50:40;;;;;;;45.67;42.58;;;16.40;99.90;;;;;;6213990;23;20051;-81
2023/09/07 05:53:06;;;;;;;42.53;39.35;;;16.40;99.90;;;;;;6238624;23;20008;-81
2023/09/07 05:55:34;;;;;;;38.03;35.13;;;16.40;99.90;;;;;;6239138;23;20085;-81
2023/09/07 05:58:04;;;;;;;30.00;27.45;;;16.40;99.90;;;;;;6213959;23;20019;-81
2023/09/07 06:00:30;;;;;;;36.47;33.60;;;16.40;99.90;;;;;;6238052;23;20448;-81
2023/09/07 06:02:55;;;;;;;42.85;39.78;;;16.50;99.90;;;;;;6212573;23;20014;-81
2023/09/07 06:05:21;;;;;;;28.02;25.85;;;16.50;99.90;;;;;;6212563;23;20015;-81
2023/09/07 06:07:47;;;;;;;30.20;27.58;;;16.60;99.90;;;;;;6237834;23;20342;-81
2023/09/07 06:10:14;;;;;;;25.40;22.83;;;16.70;99.90;;;;;;6212432;23;20261;-81
2023/09/07 06:12:40;;;;;;;30.85;28.38;;;16.70;99.90;;;;;;6238111;23;20012;-81
2023/09/07 06:15:09;;;;;;;35.42;32.60;;;16.90;99.90;;;;;;6212662;23;20095;-81
2023/09/07 06:17:37;;;;;;;25.23;23.13;;;17.10;99.90;;;;;;6212418;23;20035;-80
2023/09/07 06:20:05;;;;;;;25.20;23.27;;;18.20;99.90;;;;;;6238020;23;20086;-81
2023/09/07 06:22:31;;;;;;;24.20;22.02;;;19.70;99.90;;;;;;6237594;23;20084;-81
2023/09/07 06:25:00;;;;;;;25.50;23.30;;;21.10;99.90;;;;;;6240365;22;20008;-81
2023/09/07 06:27:25;;;;;;;32.47;30.17;;;22.30;99.90;;;;;;6238194;23;20047;-81
2023/09/07 06:29:52;;;;;;;33.20;30.70;;;23.30;99.90;;;;;;6238388;23;20008;-81
2023/09/07 06:32:18;;;;;;;38.03;35.50;;;24.00;99.90;;;;;;6263304;22;20478;-81
2023/09/07 06:34:44;;;;;;;39.13;36.53;;;24.60;99.90;;;;;;6239436;22;20088;-81
2023/09/07 06:37:10;;;;;;;33.03;30.77;;;24.30;99.90;;;;;;6212067;23;20048;-81
2023/09/07 06:39:36;;;;;;;37.28;34.92;;;23.60;99.90;;;;;;6238240;23;20343;-81
2023/09/07 06:42:05;;;;;;;32.28;30.02;;;23.00;99.90;;;;;;6238100;23;20027;-81
2023/09/07 06:44:33;;;;;;;30.20;27.67;;;22.40;99.90;;;;;;6238262;23;20023;-81
2023/09/07 06:47:08;;;;;;;24.25;22.15;;;21.90;99.90;;;;;;6237868;23;20019;-81
2023/09/07 06:49:34;;;;;;;27.85;25.63;;;21.50;99.90;;;;;;6237790;23;20432;-81
2023/09/07 06:52:00;;;;;;;33.92;31.30;;;21.10;99.90;;;;;;6237292;23;20331;-81
2023/09/07 06:54:30;;;;;;;31.52;28.58;;;20.80;99.90;;;;;;6212658;23;20016;-82
2023/09/07 06:56:56;;;;;;;30.65;28.45;;;20.60;99.90;;;;;;6212924;23;20012;-81
2023/09/07 06:59:22;;;;;;;32.05;29.60;;;20.50;99.90;;;;;;6212667;23;20099;-81
2023/09/07 07:01:48;;;;;;;28.33;25.77;;;20.50;99.90;;;;;;6239814;23;20016;-81
2023/09/07 07:04:13;;;;;;;32.30;29.95;;;20.30;99.90;;;;;;6212467;23;20031;-80
2023/09/07 07:06:40;;;;;;;25.52;23.63;;;20.30;99.90;;;;;;6211910;23;20024;-81
2023/09/07 07:09:06;;;;;;;33.00;30.65;;;20.30;99.90;;;;;;6239803;23;20008;-81
2023/09/07 07:11:34;;;;;;;27.45;25.23;;;20.30;99.90;;;;;;6240319;23;20023;-81
2023/09/07 07:14:00;;;;;;;33.58;31.00;;;20.20;99.90;;;;;;6240120;23;20443;-81
2023/09/07 07:16:26;;;;;;;30.63;28.42;;;20.20;99.90;;;;;;6241884;23;20019;-80
2023/09/07 07:18:51;;;;;;;40.33;37.13;;;20.20;99.90;;;;;;6239927;23;20450;-81
2023/09/07 07:21:17;;;;;;;31.67;29.10;;;20.10;99.90;;;;;;6239622;23;20035;-81
2023/09/07 07:23:46;;;;;;;35.92;33.35;;;20.10;99.90;;;;;;6214538;23;20009;-80
2023/09/07 07:26:12;;;;;;;31.20;28.88;;;20.10;99.90;;;;;;6239586;23;20070;-81
2023/09/07 07:28:37;;;;;;;28.00;25.50;;;20.20;99.90;;;;;;6214463;23;20012;-81
2023/09/07 07:31:10;;;;;;;28.35;25.85;;;20.20;99.90;;;;;;6239766;23;20004;-81
2023/09/07 07:33:37;;;;;;;36.28;33.90;;;20.20;99.90;;;;;;6239715;23;20008;-82
2023/09/07 07:36:07;;;;;;;28.83;26.55;;;20.30;99.90;;;;;;6213705;23;20098;-81
2023/09/07 07:38:33;;;;;;;27.88;25.17;;;20.30;99.90;;;;;;6239705;23;20377;-82
2023/09/07 07:40:58;;;;;;;26.75;24.77;;;20.40;99.90;;;;;;6240135;23;20083;-81
2023/09/07 07:43:24;;;;;;;30.35;28.13;;;20.40;99.90;;;;;;6212461;23;20023;-81
2023/09/07 07:45:52;;;;;;;29.20;27.15;;;20.50;99.90;;;;;;6239715;23;20016;-82
2023/09/07 07:48:17;;;;;;;29.73;27.73;;;20.60;99.90;;;;;;6239761;23;20488;-81
2023/09/07 07:50:43;;;;;;;29.63;27.33;;;20.70;99.90;;;;;;6239018;23;20008;-82
2023/09/07 07:53:09;;;;;;;27.10;24.95;;;20.70;99.90;;;;;;6214507;23;20008;-82
2023/09/07 07:55:39;;;;;;;29.85;27.80;;;20.80;99.90;;;;;;6239412;23;20031;-82
2023/09/07 07:58:07;;;;;;;31.63;29.33;;;20.80;99.90;;;;;;6239524;23;20438;-82
2023/09/07 08:00:34;;;;;;;31.85;28.85;;;20.90;99.90;;;;;;6214345;23;20358;-81
2023/09/07 08:03:02;;;;;;;33.85;31.55;;;20.90;99.90;;;;;;6214034;23;20221;-81
2023/09/07 08:05:29;;;;;;;32.90;30.63;;;21.10;99.90;;;;;;6213547;23;20060;-81
2023/09/07 08:07:56;;;;;;;33.50;31.20;;;21.10;99.90;;;;;;6239255;23;20012;-82
2023/09/07 08:10:21;;;;;;;36.53;33.90;;;21.20;99.90;;;;;;6214095;23;20008;-82
2023/09/07 08:12:47;;;;;;;29.02;26.73;;;21.20;99.90;;;;;;6214636;23;20030;-81
2023/09/07 08:15:14;;;;;;;29.48;27.40;;;21.30;99.90;;;;;;6214060;23;20012;-82
2023/09/07 08:17:40;;;;;;;30.70;28.45;;;21.30;99.90;;;;;;6239568;23;20047;-81
2023/09/07 08:20:11;;;;;;;30.70;28.50;;;21.50;99.90;;;;;;6238458;23;20016;-82
2023/09/07 08:22:40;;;;;;;30.48;28.15;;;21.50;99.90;;;;;;6241536;22;20012;-82
2023/09/07 08:25:07;;;;;;;36.83;34.45;;;21.60;99.90;;;;;;6239636;23;20191;-82
2023/09/07 08:27:35;;;;;;;30.65;27.98;;;21.70;99.90;;;;;;6213866;23;20012;-82
2023/09/07 08:30:03;;;;;;;31.08;28.83;;;21.70;99.90;;;;;;6239231;23;20020;-82
2023/09/07 08:32:29;;;;;;;49.80;46.70;;;21.80;99.90;;;;;;6264202;22;20079;-82
2023/09/07 08:34:59;;;;;;;32.83;30.58;;;22.00;99.90;;;;;;6264674;22;20008;-82
2023/09/07 08:37:25;;;;;;;38.20;35.72;;;22.00;99.90;;;;;;6214079;23;20020;-82
2023/09/07 08:39:51;;;;;;;42.33;39.20;;;22.20;99.90;;;;;;6213989;23;20023;-81
2023/09/07 08:42:17;;;;;;;27.70;25.67;;;22.30;99.90;;;;;;6239197;23;20015;-82
2023/09/07 08:44:46;;;;;;;34.83;32.65;;;22.30;99.90;;;;;;6264741;22;20150;-82
2023/09/07 08:47:14;;;;;;;28.20;26.00;;;22.50;99.90;;;;;;6238512;23;20307;-82
2023/09/07 08:49:41;;;;;;;31.08;28.98;;;22.60;99.90;;;;;;6239284;23;20040;-82
2023/09/07 08:52:08;;;;;;;28.48;26.52;;;22.70;99.90;;;;;;6265003;22;20553;-81
2023/09/07 08:54:35;;;;;;;36.10;33.58;;;22.80;99.90;;;;;;6213970;23;20017;-82
2023/09/07 08:57:04;;;;;;;39.33;36.58;;;23.00;99.90;;;;;;6214117;23;20012;-82
2023/09/07 08:59:30;;;;;;;43.83;40.85;;;23.50;99.90;;;;;;6239484;23;20012;-83
2023/09/07 09:01:59;;;;;;;36.25;33.88;;;24.50;99.90;;;;;;6239158;23;20335;-82
2023/09/07 09:04:27;;;;;;;49.03;45.95;;;25.60;99.90;;;;;;6213657;23;20020;-82
2023/09/07 09:06:53;;;;;;;36.70;34.20;;;26.30;99.90;;;;;;6213810;23;20066;-82
2023/09/07 09:09:24;;;;;;;45.70;42.80;;;26.90;99.90;;;;;;6239214;23;20012;-81
2023/09/07 09:11:50;;;;;;;55.63;52.00;;;27.20;99.90;;;;;;6239010;23;20451;-82
2023/09/07 09:14:22;;;;;;;30.67;28.35;;;27.50;99.90;;;;;;6239089;23;20016;-82
2023/09/07 09:16:51;;;;;;;33.40;31.15;;;27.60;99.90;;;;;;6213051;23;20023;-82
2023/09/07 09:19:20;;;;;;;24.90;22.75;;;28.10;99.90;;;;;;6213426;23;20016;-82
2023/09/07 09:21:46;;;;;;;27.95;25.73;;;28.40;99.90;;;;;;6213705;23;20012;-82
2023/09/07 09:24:14;;;;;;;34.22;31.92;;;28.50;99.90;;;;;;6240333;22;20528;-83
2023/09/07 09:26:40;;;;;;;32.85;30.15;;;28.60;99.90;;;;;;6213645;23;20451;-82
2023/09/07 09:29:06;;;;;;;52.53;49.25;;;28.30;99.90;;;;;;6239158;23;20019;-82
2023/09/07 09:31:34;;;;;;;44.40;41.70;;;27.40;99.90;;;;;;6212723;23;20090;-82
2023/09/07 09:34:00;;;;;;;304.17;283.55;;;26.90;99.90;;;;;;6213446;23;20027;-82
2023/09/07 09:36:33;;;;;;;588.25;545.33;;;26.40;99.90;;;;;;6240678;22;20020;-82
2023/09/07 09:39:04;;;;;;;767.58;704.15;;;26.00;99.90;;;;;;6240774;22;20012;-82
2023/09/07 09:41:33;;;;;;;1037.38;943.33;;;25.70;99.90;;;;;;6238883;23;20092;-82
2023/09/07 09:44:00;;;;;;;1051.70;952.60;;;25.50;99.90;;;;;;6213458;23;20348;-82
2023/09/07 09:46:27;;;;;;;1354.57;999.90;;;25.30;99.90;;;;;;6212980;23;20281;-82
2023/09/07 09:48:55;;;;;;;1999.90;999.90;;;25.40;99.90;;;;;;6213654;23;20012;-81
2023/09/07 09:51:23;;;;;;;1113.38;996.40;;;25.30;99.90;;;;;;6238744;23;20008;-82
2023/09/07 09:53:49;;;;;;;1111.95;993.33;;;25.30;99.90;;;;;;6213529;23;20011;-80
2023/09/07 09:56:16;;;;;;;1999.90;999.90;;;25.30;99.90;;;;;;6213129;23;20047;-82
2023/09/07 09:58:42;;;;;;;1427.22;999.90;;;25.40;99.90;;;;;;6213273;23;20018;-81
2023/09/07 10:01:10;;;;;;;1984.22;999.90;;;25.40;99.90;;;;;;6239524;22;20043;-81
2023/09/07 10:03:45;;;;;;;1220.53;999.90;;;25.40;99.90;;;;;;6213116;23;20050;-81
2023/09/07 10:06:24;;;;;;;1999.90;999.90;;;25.50;99.90;;;;;;6239055;23;20012;-82
2023/09/07 10:09:10;;;;;;;1999.90;999.90;;;25.60;99.90;;;;;;6213184;23;20009;-82
2023/09/07 10:11:38;;;;;;;1999.90;999.90;;;25.60;99.90;;;;;;6213392;23;20015;-82
2023/09/07 10:14:06;;;;;;;1999.90;999.90;;;25.70;99.90;;;;;;6212719;23;20441;-82
2023/09/07 10:16:55;;;;;;;1999.90;999.90;;;25.80;99.90;;;;;;6238553;23;20070;-82
2023/09/07 10:19:25;;;;;;;1999.90;999.90;;;26.00;99.90;;;;;;6213029;23;20099;-81
2023/09/07 10:21:53;;;;;;;1999.90;999.90;;;26.10;99.90;;;;;;6212988;23;20044;-81
2023/09/07 10:24:39;;;;;;;1999.90;999.90;;;26.10;99.90;;;;;;6213228;23;20005;-81
2023/09/07 10:27:11;;;;;;;1999.90;999.90;;;26.20;99.90;;;;;;6263745;22;20012;-82
2023/09/07 10:29:45;;;;;;;1999.90;996.22;;;26.20;99.90;;;;;;6237618;23;20494;-81
2023/09/07 10:32:14;;;;;;;1999.90;999.90;;;26.20;99.90;;;;;;6240332;22;20087;-81
2023/09/07 10:34:43;;;;;;;1999.90;999.90;;;26.30;99.90;;;;;;6212744;23;20008;-82
2023/09/07 10:37:19;;;;;;;1999.90;999.90;;;26.30;99.90;;;;;;6213247;23;20069;-82
2023/09/07 10:39:45;;;;;;;1999.90;999.90;;;26.40;99.90;;;;;;6238093;23;20016;-81
2023/09/07 10:42:24;;;;;;;1999.90;999.90;;;26.50;99.90;;;;;;6238174;23;20039;-81
2023/09/07 10:44:50;;;;;;;1999.90;467.25;;;26.50;99.90;;;;;;6241560;22;20023;-82
2023/09/07 10:47:16;;;;;;;1999.90;906.58;;;26.60;99.90;;;;;;6239958;23;20023;-82
2023/09/07 10:49:42;;;;;;;1999.90;832.72;;;26.70;99.90;;;;;;6241492;22;20443;-82
2023/09/07 10:52:15;;;;;;;1999.90;999.90;;;26.80;99.90;;;;;;6241922;23;20105;-82
2023/09/07 10:54:41;;;;;;;1999.90;999.90;;;27.00;99.90;;;;;;6213629;23;20091;-82
2023/09/07 10:57:13;;;;;;;1999.90;999.90;;;27.10;99.90;;;;;;6240133;23;20090;-82
2023/09/07 10:59:46;;;;;;;1999.90;999.90;;;27.00;99.90;;;;;;6215033;23;20016;-82
2023/09/07 11:02:15;;;;;;;1999.90;999.90;;;27.20;99.90;;;;;;6241070;23;20023;-83
2023/09/07 11:04:47;;;;;;;1999.90;999.90;;;27.20;99.90;;;;;;6240724;23;20023;-83
2023/09/07 11:07:13;;;;;;;1999.90;999.90;;;27.30;99.90;;;;;;6240364;23;20071;-82
2023/09/07 11:09:58;;;;;;;1999.90;999.90;;;27.30;99.90;;;;;;6215600;23;20027;-83
2023/09/07 11:12:29;;;;;;;1999.90;999.90;;;27.30;99.90;;;;;;6215406;23;20043;-83
2023/09/07 11:15:01;;;;;;;1999.90;999.90;;;27.40;99.90;;;;;;6215382;23;20092;-82
2023/09/07 11:17:36;;;;;;;1999.90;999.90;;;27.50;99.90;;;;;;6215176;23;20012;-83
2023/09/07 11:20:14;;;;;;;1999.90;999.90;;;27.60;99.90;;;;;;6214964;23;20038;-83
2023/09/07 11:23:01;;;;;;;1999.90;999.90;;;27.60;99.90;;;;;;6240728;23;20095;-83
2023/09/07 11:25:45;;;;;;;1999.90;999.90;;;27.50;99.90;;;;;;6240002;23;20054;-82
2023/09/07 11:28:30;;;;;;;1999.90;999.90;;;27.80;99.00;;;;;;6214882;23;20016;-82
2023/09/07 11:31:06;;;;;;;1999.90;999.90;;;27.90;99.60;;;;;;6240240;23;20008;-82
2023/09/07 11:33:35;;;;;;;1999.90;999.90;;;27.90;99.30;;;;;;6240556;23;20074;-82
2023/09/07 11:36:01;;;;;;;1999.90;999.90;;;28.00;99.60;;;;;;6214604;23;20065;-82
2023/09/07 11:38:34;;;;;;;1999.90;999.90;;;28.10;99.60;;;;;;6240381;23;20044;-82
2023/09/07 11:41:00;;;;;;;1999.90;999.90;;;28.10;98.70;;;;;;6213804;23;20008;-82
2023/09/07 11:43:26;;;;;;;1999.90;999.90;;;28.20;98.20;;;;;;6239756;23;20361;-82
2023/09/07 11:45:52;;;;;;;1999.90;999.90;;;28.30;98.50;;;;;;6214734;23;20391;-82
2023/09/07 11:48:17;;;;;;;1999.90;999.90;;;28.30;97.90;;;;;;6239752;23;20547;-82
2023/09/07 11:50:43;;;;;;;1999.90;999.90;;;28.30;98.20;;;;;;6265464;22;20016;-83
2023/09/07 11:53:09;;;;;;;1999.90;999.90;;;28.30;98.00;;;;;;6214262;23;20069;-82
2023/09/07 11:55:35;;;;;;;1999.90;999.90;;;28.40;97.90;;;;;;6213556;23;20356;-82
2023/09/07 11:58:10;;;;;;;1999.90;999.90;;;28.50;97.80;;;;;;6214325;23;20055;-82
2023/09/07 12:00:36;;;;;;;1999.90;999.90;;;28.30;97.40;;;;;;6214587;23;20199;-82
2023/09/07 12:03:05;;;;;;;1999.90;999.90;;;28.40;97.00;;;;;;6239278;23;20016;-82
2023/09/07 12:05:37;;;;;;;1999.90;999.90;;;28.40;99.00;;;;;;6213928;23;20172;-82
2023/09/07 12:08:06;;;;;;;1999.90;999.90;;;28.40;98.00;;;;;;6213693;23;20028;-82
2023/09/07 12:10:35;;;;;;;1999.90;999.90;;;28.50;97.50;;;;;;6212747;23;20473;-82
2023/09/07 12:13:01;;;;;;;1999.90;999.90;;;28.60;98.60;;;;;;6241196;22;20048;-82
2023/09/07 12:15:27;;;;;;;1999.90;999.90;;;28.60;97.70;;;;;;6239048;23;20036;-82
2023/09/07 12:17:54;;;;;;;1999.90;999.90;;;28.70;97.60;;;;;;6213887;23;20020;-82
2023/09/07 12:20:21;;;;;;;1999.90;999.90;;;28.70;97.50;;;;;;6239717;23;20290;-83
2023/09/07 12:22:47;;;;;;;1999.90;999.90;;;28.80;97.20;;;;;;6213860;23;20012;-83
2023/09/07 12:25:12;;;;;;;1999.90;999.90;;;28.80;97.80;;;;;;6239011;23;20148;-82